createdAt,value
2022-08-27T00:02:26.301Z,5.97
2022-08-27T00:04:54.711Z,6.95
2022-08-27T00:07:23.154Z,5.93
2022-08-27T00:09:51.547Z,5.50
2022-08-27T00:12:21.962Z,6.15
2022-08-27T00:14:50.610Z,6.38
2022-08-27T00:17:18.992Z,5.80
2022-08-27T00:19:47.384Z,5.88
2022-08-27T00:22:15.927Z,5.85
2022-08-27T00:24:48.545Z,6.47
2022-08-27T00:27:17.619Z,6.53
2022-08-27T00:29:47.962Z,7.25
2022-08-27T00:32:16.673Z,14.98
2022-08-27T00:34:45.063Z,10.65
2022-08-27T00:37:13.454Z,10.27
2022-08-27T00:39:41.854Z,9.68
2022-08-27T00:42:10.271Z,17.52
2022-08-27T00:44:39.461Z,18.52
2022-08-27T00:47:12.651Z,6.85
2022-08-27T00:49:43.683Z,6.65
2022-08-27T00:52:15.538Z,7.00
2022-08-27T00:54:44.116Z,8.65
2022-08-27T00:57:12.771Z,6.82
2022-08-27T00:59:41.907Z,6.72
2022-08-27T01:02:21.465Z,6.70
2022-08-27T01:04:51.929Z,6.00
2022-08-27T01:07:21.296Z,6.63
2022-08-27T01:09:50.862Z,6.57
2022-08-27T01:12:20.910Z,6.15
2022-08-27T01:14:49.359Z,6.03
2022-08-27T01:17:19.108Z,6.40
2022-08-27T01:19:50.896Z,6.65
2022-08-27T01:22:24.847Z,12.30
2022-08-27T01:24:56.601Z,9.68
2022-08-27T01:27:27.175Z,8.43
2022-08-27T01:29:55.569Z,8.25
2022-08-27T01:32:24.897Z,6.63
2022-08-27T01:34:53.809Z,6.85
2022-08-27T01:37:23.918Z,7.25
2022-08-27T01:39:52.702Z,11.75
2022-08-27T01:42:24.211Z,9.02
2022-08-27T01:44:53.692Z,9.57
2022-08-27T01:47:22.769Z,8.00
2022-08-27T01:49:59.122Z,7.75
2022-08-27T01:52:29.240Z,7.15
2022-08-27T01:54:57.641Z,6.30
2022-08-27T01:57:27.450Z,7.28
2022-08-27T01:59:56.936Z,7.80
2022-08-27T02:02:25.442Z,8.02
2022-08-27T02:04:53.835Z,7.40
2022-08-27T02:07:22.206Z,7.22
2022-08-27T02:09:50.591Z,7.60
2022-08-27T02:12:18.988Z,6.72
2022-08-27T02:14:48.723Z,8.13
2022-08-27T02:17:17.374Z,7.15
2022-08-27T02:19:45.728Z,6.88
2022-08-27T02:22:14.204Z,7.82
2022-08-27T02:24:42.712Z,7.32
2022-08-27T02:27:11.509Z,6.82
2022-08-27T02:29:39.937Z,6.75
2022-08-27T02:32:20.667Z,7.63
2022-08-27T02:34:58.149Z,7.20
2022-08-27T02:37:26.708Z,6.20
2022-08-27T02:39:55.116Z,6.45
2022-08-27T02:42:23.878Z,6.55
2022-08-27T02:44:52.242Z,6.15
2022-08-27T02:47:21.979Z,5.53
2022-08-27T02:49:50.424Z,5.70
2022-08-27T02:52:24.889Z,6.05
2022-08-27T02:54:55.222Z,5.50
2022-08-27T02:57:27.101Z,5.60
2022-08-27T02:59:55.782Z,5.60
2022-08-27T03:02:27.512Z,6.32
2022-08-27T03:04:56.051Z,5.13
2022-08-27T03:07:24.644Z,6.53
2022-08-27T03:09:55.587Z,5.72
2022-08-27T03:12:26.447Z,15.43
2022-08-27T03:14:54.811Z,11.68
2022-08-27T03:17:42.165Z,7.72
2022-08-27T03:20:12.397Z,8.00
2022-08-27T03:22:42.131Z,11.75
2022-08-27T03:25:10.888Z,7.20
2022-08-27T03:27:39.657Z,13.73
2022-08-27T03:30:09.194Z,7.32
2022-08-27T03:32:39.292Z,7.78
2022-08-27T03:35:08.090Z,7.80
2022-08-27T03:37:36.497Z,7.22
2022-08-27T03:40:05.429Z,8.50
2022-08-27T03:42:34.658Z,6.63
2022-08-27T03:45:03.056Z,7.05
2022-08-27T03:47:32.242Z,8.23
2022-08-27T03:50:01.976Z,8.48
2022-08-27T03:52:30.712Z,7.88
2022-08-27T03:55:01.612Z,7.32
2022-08-27T03:57:30.045Z,6.85
2022-08-27T03:59:58.428Z,8.55
2022-08-27T04:02:26.812Z,9.40
2022-08-27T04:04:57.570Z,13.38
2022-08-27T04:07:27.348Z,7.88
2022-08-27T04:09:55.691Z,7.35
2022-08-27T04:12:24.051Z,8.25
2022-08-27T04:14:52.409Z,8.38
2022-08-27T04:17:20.776Z,8.63
2022-08-27T04:19:49.102Z,7.88
2022-08-27T04:22:17.469Z,8.50
2022-08-27T04:24:47.177Z,10.18
2022-08-27T04:27:16.364Z,9.50
2022-08-27T04:29:45.003Z,9.48
2022-08-27T04:32:16.111Z,10.32
2022-08-27T04:34:44.522Z,11.07
2022-08-27T04:37:12.956Z,10.40
2022-08-27T04:39:41.592Z,8.25
2022-08-27T04:42:13.949Z,10.32
2022-08-27T04:44:42.289Z,10.07
2022-08-27T04:47:14.013Z,10.38
2022-08-27T04:49:42.388Z,10.57
2022-08-27T04:52:10.754Z,12.07
2022-08-27T04:54:39.618Z,11.60
2022-08-27T04:57:08.633Z,11.52
2022-08-27T04:59:38.958Z,10.73
2022-08-27T05:02:08.985Z,9.48
2022-08-27T05:04:40.058Z,10.88
2022-08-27T05:07:09.352Z,9.50
2022-08-27T05:09:37.988Z,9.75
2022-08-27T05:12:07.738Z,11.25
2022-08-27T05:14:36.131Z,10.25
2022-08-27T05:17:05.854Z,10.82
2022-08-27T05:19:34.244Z,11.13
2022-08-27T05:22:02.611Z,11.65
2022-08-27T05:24:32.376Z,11.15
2022-08-27T05:27:00.745Z,9.52
2022-08-27T05:29:31.132Z,9.18
2022-08-27T05:31:59.487Z,11.07
2022-08-27T05:34:29.870Z,13.27
2022-08-27T05:36:58.873Z,10.32
2022-08-27T05:39:27.230Z,13.07
2022-08-27T05:41:58.229Z,10.57
2022-08-27T05:44:42.276Z,12.02
2022-08-27T05:47:11.351Z,12.00
2022-08-27T05:49:41.063Z,11.73
2022-08-27T05:52:10.601Z,10.55
2022-08-27T05:54:39.611Z,9.07
2022-08-27T05:57:07.984Z,10.05
2022-08-27T05:59:54.232Z,10.05
2022-08-27T06:02:26.119Z,11.98
2022-08-27T06:04:56.078Z,10.38
2022-08-27T06:07:27.248Z,9.27
2022-08-27T06:09:55.599Z,9.00
2022-08-27T06:12:27.072Z,8.55
2022-08-27T06:14:56.539Z,10.88
2022-08-27T06:17:27.999Z,9.95
2022-08-27T06:19:57.769Z,9.15
2022-08-27T06:22:29.286Z,11.30
2022-08-27T06:24:57.621Z,9.93
2022-08-27T06:27:25.983Z,9.68
2022-08-27T06:29:54.333Z,10.93
2022-08-27T06:32:24.025Z,11.13
2022-08-27T06:34:52.387Z,11.05
2022-08-27T06:37:22.106Z,9.80
2022-08-27T06:39:51.515Z,11.25
2022-08-27T06:42:20.066Z,12.15
2022-08-27T06:44:54.721Z,12.10
2022-08-27T06:47:23.255Z,11.50
2022-08-27T06:49:51.603Z,11.85
2022-08-27T06:52:19.962Z,11.95
2022-08-27T06:54:50.391Z,11.02
2022-08-27T06:57:19.134Z,10.23
2022-08-27T06:59:47.470Z,11.60
2022-08-27T07:02:16.262Z,9.88
2022-08-27T07:04:44.640Z,10.15
2022-08-27T07:07:14.529Z,10.77
2022-08-27T07:10:00.507Z,10.07
2022-08-27T07:12:30.672Z,10.40
2022-08-27T07:14:59.243Z,10.85
2022-08-27T07:17:27.947Z,8.85
2022-08-27T07:19:56.604Z,9.05
2022-08-27T07:22:24.954Z,9.27
2022-08-27T07:24:53.783Z,10.07
2022-08-27T07:27:23.543Z,9.45
2022-08-27T07:29:51.950Z,9.82
2022-08-27T07:32:20.327Z,10.77
2022-08-27T07:34:49.245Z,9.05
2022-08-27T07:37:17.622Z,10.43
2022-08-27T07:39:45.973Z,11.38
2022-08-27T07:42:40.504Z,8.75
2022-08-27T07:45:11.478Z,9.98
2022-08-27T07:47:39.863Z,8.27
2022-08-27T07:50:08.856Z,9.35
2022-08-27T07:52:37.265Z,8.20
2022-08-27T07:55:06.075Z,9.15
2022-08-27T07:57:34.496Z,8.45
2022-08-27T08:00:02.866Z,11.10
2022-08-27T08:02:47.343Z,8.43
2022-08-27T08:05:16.857Z,8.80
2022-08-27T08:07:45.215Z,10.48
2022-08-27T08:10:13.646Z,10.18
2022-08-27T08:12:42.787Z,8.05
2022-08-27T08:15:12.319Z,9.65
2022-08-27T08:17:42.419Z,10.07
2022-08-27T08:20:27.573Z,9.88
2022-08-27T08:23:00.559Z,10.15
2022-08-27T08:25:28.933Z,10.38
2022-08-27T08:28:04.039Z,10.27
2022-08-27T08:30:35.174Z,9.88
2022-08-27T08:33:05.300Z,9.90
2022-08-27T08:35:35.057Z,11.80
2022-08-27T08:38:07.896Z,10.90
2022-08-27T08:40:38.160Z,11.07
2022-08-27T08:43:07.864Z,10.68
2022-08-27T08:45:38.627Z,11.32
2022-08-27T08:48:10.248Z,11.85
2022-08-27T08:50:41.372Z,12.02
2022-08-27T08:53:12.534Z,9.73
2022-08-27T08:55:42.661Z,12.40
2022-08-27T08:58:15.106Z,12.75
2022-08-27T09:00:44.590Z,9.85
2022-08-27T09:03:15.245Z,11.77
2022-08-27T09:05:45.833Z,11.07
2022-08-27T09:08:36.480Z,9.50
2022-08-27T09:11:08.293Z,10.77
2022-08-27T09:13:39.291Z,9.77
2022-08-27T09:16:08.339Z,12.27
2022-08-27T09:18:39.385Z,10.80
2022-08-27T09:21:12.732Z,10.65
2022-08-27T09:23:45.651Z,11.85
2022-08-27T09:26:21.699Z,10.57
2022-08-27T09:29:08.049Z,9.63
2022-08-27T09:31:40.855Z,9.85
2022-08-27T09:34:10.714Z,12.75
2022-08-27T09:36:48.156Z,25.13
2022-08-27T09:39:16.651Z,40.30
2022-08-27T09:41:46.961Z,11.18
2022-08-27T09:44:18.477Z,11.05
2022-08-27T09:46:53.687Z,10.10
2022-08-27T09:49:24.153Z,10.18
2022-08-27T09:51:53.321Z,8.02
2022-08-27T09:54:43.319Z,8.05
2022-08-27T09:57:12.864Z,7.45
2022-08-27T09:59:42.985Z,8.18
2022-08-27T10:02:16.287Z,6.95
2022-08-27T10:04:50.715Z,8.10
2022-08-27T10:07:34.508Z,6.28
2022-08-27T10:10:06.746Z,6.03
2022-08-27T10:12:37.785Z,6.65
2022-08-27T10:15:07.253Z,7.28
2022-08-27T10:17:43.399Z,8.07
2022-08-27T10:20:21.614Z,7.30
2022-08-27T10:23:03.164Z,7.47
2022-08-27T10:25:39.584Z,7.50
2022-08-27T10:28:12.778Z,7.43
2022-08-27T10:30:48.110Z,6.35
2022-08-27T10:33:23.386Z,6.35
2022-08-27T10:35:59.963Z,6.85
2022-08-27T10:38:33.388Z,6.50
2022-08-27T10:41:04.210Z,7.32
2022-08-27T10:43:43.605Z,6.57
2022-08-27T10:46:27.323Z,6.20
2022-08-27T10:48:59.595Z,6.00
2022-08-27T10:51:32.807Z,6.32
2022-08-27T10:54:05.019Z,6.70
2022-08-27T10:56:36.596Z,6.35
2022-08-27T10:59:12.939Z,5.40
2022-08-27T11:01:45.750Z,5.43
2022-08-27T11:04:16.586Z,5.40
2022-08-27T11:06:47.733Z,5.15
2022-08-27T11:09:18.119Z,5.95
2022-08-27T11:12:13.159Z,5.55
2022-08-27T11:14:39.300Z,5.85
2022-08-27T11:17:12.068Z,6.05
2022-08-27T11:19:44.991Z,5.40
2022-08-27T11:22:21.490Z,5.30
2022-08-27T11:24:58.392Z,5.40
2022-08-27T11:27:29.144Z,4.97
2022-08-27T11:30:00.704Z,4.47
2022-08-27T11:32:32.074Z,4.85
2022-08-27T11:35:01.884Z,5.03
2022-08-27T11:37:41.802Z,4.88
2022-08-27T11:40:24.615Z,5.05
2022-08-27T11:42:55.673Z,4.80
2022-08-27T11:45:28.592Z,4.50
2022-08-27T11:47:58.497Z,5.13
2022-08-27T11:50:27.790Z,4.10
2022-08-27T11:52:59.666Z,5.05
2022-08-27T11:55:30.038Z,4.70
2022-08-27T11:58:06.514Z,5.00
2022-08-27T12:00:36.411Z,4.22
2022-08-27T12:03:06.482Z,4.38
2022-08-27T12:05:37.148Z,5.55
2022-08-27T12:08:16.135Z,4.50
2022-08-27T12:10:53.319Z,4.60
2022-08-27T12:13:24.469Z,5.18
2022-08-27T12:15:58.869Z,4.38
2022-08-27T12:18:44.459Z,5.22
2022-08-27T12:21:22.137Z,4.88
2022-08-27T12:24:08.735Z,5.20
2022-08-27T12:26:38.026Z,4.80
2022-08-27T12:29:24.487Z,5.00
2022-08-27T12:31:57.327Z,4.90
2022-08-27T12:34:26.974Z,4.25
2022-08-27T12:36:57.368Z,4.78
2022-08-27T12:39:29.327Z,5.30
2022-08-27T12:41:58.695Z,5.28
2022-08-27T12:44:31.419Z,5.18
2022-08-27T12:47:02.865Z,4.97
2022-08-27T12:49:37.983Z,5.28
2022-08-27T12:52:15.493Z,5.72
2022-08-27T12:55:00.389Z,5.88
2022-08-27T12:57:34.680Z,8.02
2022-08-27T13:00:14.633Z,8.43
2022-08-27T13:02:54.828Z,9.48
2022-08-27T13:05:24.093Z,15.10
2022-08-27T13:07:53.420Z,13.20
2022-08-27T13:10:25.997Z,10.68
2022-08-27T13:13:03.095Z,12.23
2022-08-27T13:15:35.281Z,11.55
2022-08-27T13:18:07.408Z,11.77
2022-08-27T13:20:38.083Z,17.10
2022-08-27T13:23:09.705Z,18.63
2022-08-27T13:25:42.029Z,15.75
2022-08-27T13:28:12.621Z,15.68
2022-08-27T13:30:43.965Z,15.32
2022-08-27T13:33:15.293Z,16.30
2022-08-27T13:35:45.279Z,17.65
2022-08-27T13:38:13.773Z,15.13
2022-08-27T13:40:54.568Z,20.42
2022-08-27T13:43:23.906Z,19.58
2022-08-27T13:45:54.479Z,23.13
2022-08-27T13:48:24.403Z,22.33
2022-08-27T13:50:53.771Z,23.42
2022-08-27T13:53:42.092Z,17.73
2022-08-27T13:56:12.500Z,18.10
2022-08-27T13:58:40.890Z,18.30
2022-08-27T14:01:10.570Z,17.98
2022-08-27T14:03:47.539Z,18.05
2022-08-27T14:06:24.352Z,18.80
2022-08-27T14:09:00.807Z,16.38
2022-08-27T14:11:31.223Z,19.50
2022-08-27T14:13:59.899Z,15.27
2022-08-27T14:16:30.033Z,20.75
2022-08-27T14:19:05.008Z,15.13
2022-08-27T14:21:37.280Z,13.40
2022-08-27T14:24:06.114Z,13.15
2022-08-27T14:26:36.198Z,12.80
2022-08-27T14:29:11.270Z,12.82
2022-08-27T14:31:40.669Z,12.68
2022-08-27T14:34:09.353Z,14.18
2022-08-27T14:36:38.933Z,10.73
2022-08-27T14:39:08.006Z,10.77
2022-08-27T14:41:37.746Z,10.55
2022-08-27T14:44:06.202Z,10.52
2022-08-27T14:46:41.563Z,10.55
2022-08-27T14:49:13.042Z,9.30
2022-08-27T14:51:42.728Z,10.05
2022-08-27T14:54:11.206Z,8.75
2022-08-27T14:56:40.937Z,8.63
2022-08-27T14:59:09.386Z,8.70
2022-08-27T15:01:38.492Z,6.90
2022-08-27T15:04:07.977Z,7.97
2022-08-27T15:06:36.508Z,8.05
2022-08-27T15:09:06.132Z,8.65
2022-08-27T15:11:36.626Z,7.20
2022-08-27T15:14:08.180Z,8.80
2022-08-27T15:16:38.447Z,8.38
2022-08-27T15:19:08.314Z,8.23
2022-08-27T15:21:37.410Z,8.45
2022-08-27T15:24:07.789Z,7.88
2022-08-27T15:26:36.922Z,7.20
2022-08-27T15:29:07.006Z,7.95
2022-08-27T15:31:35.996Z,8.80
2022-08-27T15:34:04.641Z,6.97
2022-08-27T15:36:33.013Z,9.93
2022-08-27T15:39:01.418Z,7.10
2022-08-27T15:41:34.268Z,8.23
2022-08-27T15:44:08.598Z,6.40
2022-08-27T15:46:37.206Z,7.15
2022-08-27T15:49:08.248Z,8.00
2022-08-27T15:51:36.668Z,6.45
2022-08-27T15:54:05.120Z,6.03
2022-08-27T15:56:34.680Z,6.50
2022-08-27T15:59:03.261Z,6.80
2022-08-27T16:01:33.822Z,6.80
2022-08-27T16:04:02.898Z,7.13
2022-08-27T16:06:35.015Z,6.63
2022-08-27T16:09:04.057Z,7.25
2022-08-27T16:11:32.504Z,5.72
2022-08-27T16:14:01.423Z,7.75
2022-08-27T16:16:31.003Z,6.20
2022-08-27T16:19:01.494Z,8.57
2022-08-27T16:21:30.768Z,7.70
2022-08-27T16:23:59.139Z,6.32
2022-08-27T16:26:27.839Z,5.20
2022-08-27T16:28:56.226Z,6.40
2022-08-27T16:31:24.731Z,6.20
2022-08-27T16:33:53.423Z,6.72
2022-08-27T16:36:23.211Z,6.50
2022-08-27T16:38:51.693Z,6.30
2022-08-27T16:41:22.443Z,6.22
2022-08-27T16:43:51.050Z,7.18
2022-08-27T16:46:19.523Z,6.30
2022-08-27T16:49:05.414Z,5.82
2022-08-27T16:51:37.537Z,7.28
2022-08-27T16:54:07.430Z,6.68
2022-08-27T16:56:37.834Z,6.80
2022-08-27T16:59:06.611Z,7.07
2022-08-27T17:01:35.481Z,7.90
2022-08-27T17:04:16.388Z,7.75
2022-08-27T17:06:53.715Z,6.90
2022-08-27T17:09:22.171Z,6.60
2022-08-27T17:11:54.486Z,7.30
2022-08-27T17:14:23.047Z,8.27
2022-08-27T17:16:53.880Z,7.85
2022-08-27T17:19:26.126Z,6.70
2022-08-27T17:21:55.986Z,7.25
2022-08-27T17:24:24.569Z,6.70
2022-08-27T17:26:53.001Z,6.72
2022-08-27T17:29:21.704Z,7.38
2022-08-27T17:31:50.213Z,5.80
2022-08-27T17:34:19.868Z,6.03
2022-08-27T17:36:48.446Z,6.38
2022-08-27T17:39:18.285Z,7.22
2022-08-27T17:41:48.356Z,5.90
2022-08-27T17:44:20.382Z,5.97
2022-08-27T17:46:48.888Z,6.35
2022-08-27T17:49:17.832Z,7.75
2022-08-27T17:51:50.259Z,8.55
2022-08-27T17:54:27.036Z,7.15
2022-08-27T17:56:58.578Z,7.18
2022-08-27T17:59:27.742Z,6.72
2022-08-27T18:01:56.647Z,6.88
2022-08-27T18:04:25.216Z,6.57
2022-08-27T18:06:53.579Z,8.57
2022-08-27T18:09:22.083Z,7.07
2022-08-27T18:11:52.929Z,7.70
2022-08-27T18:14:21.755Z,8.32
2022-08-27T18:16:53.180Z,13.38
2022-08-27T18:19:21.811Z,12.77
2022-08-27T18:21:50.154Z,12.52
2022-08-27T18:24:18.888Z,17.08
2022-08-27T18:26:47.694Z,19.05
2022-08-27T18:29:17.587Z,16.65
2022-08-27T18:31:46.001Z,19.67
2022-08-27T18:34:18.779Z,18.10
2022-08-27T18:36:49.894Z,23.88
2022-08-27T18:39:27.805Z,23.00
2022-08-27T18:41:56.475Z,19.02
2022-08-27T18:44:26.268Z,18.33
2022-08-27T18:46:54.729Z,19.75
2022-08-27T18:49:26.684Z,16.00
2022-08-27T18:51:55.560Z,19.33
2022-08-27T18:54:27.324Z,22.63
2022-08-27T18:56:56.036Z,18.92
2022-08-27T18:59:27.215Z,23.13
2022-08-27T19:01:56.568Z,18.30
2022-08-27T19:04:25.759Z,18.08
2022-08-27T19:06:54.151Z,15.07
2022-08-27T19:09:22.501Z,21.20
2022-08-27T19:11:51.854Z,16.25
2022-08-27T19:14:20.286Z,15.38
2022-08-27T19:16:55.786Z,17.67
2022-08-27T19:19:25.238Z,20.60
2022-08-27T19:21:53.692Z,16.77
2022-08-27T19:24:22.619Z,17.63
2022-08-27T19:26:51.793Z,17.25
2022-08-27T19:29:20.180Z,17.77
2022-08-27T19:31:50.079Z,22.48
2022-08-27T19:34:18.633Z,18.15
2022-08-27T19:36:47.117Z,18.00
2022-08-27T19:39:15.519Z,16.52
2022-08-27T19:41:43.917Z,19.60
2022-08-27T19:44:12.314Z,19.90
2022-08-27T19:46:40.834Z,17.20
2022-08-27T19:49:10.905Z,19.67
2022-08-27T19:51:39.359Z,17.40
2022-08-27T19:54:07.773Z,22.52
2022-08-27T19:56:37.189Z,23.58
2022-08-27T19:59:20.140Z,20.17
2022-08-27T20:01:49.867Z,23.60
2022-08-27T20:04:19.665Z,19.20
2022-08-27T20:06:48.223Z,20.17
2022-08-27T20:09:21.166Z,18.23
2022-08-27T20:11:50.560Z,21.92
2022-08-27T20:14:19.258Z,19.10
2022-08-27T20:16:48.122Z,23.20
2022-08-27T20:19:16.881Z,26.50
2022-08-27T20:21:46.617Z,29.95
2022-08-27T20:24:15.016Z,29.50
2022-08-27T20:26:43.417Z,24.50
2022-08-27T20:29:12.205Z,32.42
2022-08-27T20:31:43.561Z,23.83
2022-08-27T20:34:12.023Z,22.63
2022-08-27T20:36:40.435Z,24.95
2022-08-27T20:39:10.305Z,31.67
2022-08-27T20:41:38.678Z,26.38
2022-08-27T20:44:09.008Z,26.38
2022-08-27T20:46:37.441Z,24.90
2022-08-27T20:49:07.811Z,22.60
2022-08-27T20:52:02.159Z,20.13
2022-08-27T20:54:26.454Z,20.83
2022-08-27T20:56:54.826Z,21.58
2022-08-27T20:59:40.932Z,19.73
2022-08-27T21:02:10.581Z,22.75
2022-08-27T21:04:39.592Z,19.90
2022-08-27T21:07:08.130Z,21.52
2022-08-27T21:09:56.302Z,16.60
2022-08-27T21:12:26.051Z,18.00
2022-08-27T21:14:56.154Z,15.35
2022-08-27T21:17:25.396Z,17.80
2022-08-27T21:19:53.753Z,26.25
2022-08-27T21:22:22.666Z,18.17
2022-08-27T21:24:52.568Z,22.33
2022-08-27T21:27:22.106Z,18.23
2022-08-27T21:29:54.157Z,24.77
2022-08-27T21:32:22.795Z,17.23
2022-08-27T21:34:51.193Z,18.45
2022-08-27T21:37:19.709Z,18.17
2022-08-27T21:39:48.058Z,15.02
2022-08-27T21:42:17.868Z,15.27
2022-08-27T21:44:46.247Z,16.75
2022-08-27T21:47:14.629Z,15.27
2022-08-27T21:49:42.995Z,18.52
2022-08-27T21:52:11.447Z,18.40
2022-08-27T21:54:41.119Z,16.67
2022-08-27T21:57:10.298Z,14.57
2022-08-27T21:59:45.610Z,17.67
2022-08-27T22:02:38.017Z,15.00
2022-08-27T22:05:03.455Z,11.90
2022-08-27T22:07:31.887Z,12.77
2022-08-27T22:10:00.275Z,11.80
2022-08-27T22:12:28.677Z,13.38
2022-08-27T22:14:58.599Z,13.35
2022-08-27T22:17:27.060Z,10.85
2022-08-27T22:19:57.618Z,12.10
2022-08-27T22:22:30.697Z,11.85
2022-08-27T22:25:02.112Z,11.77
2022-08-27T22:27:30.487Z,14.55
2022-08-27T22:30:00.239Z,11.93
2022-08-27T22:32:30.771Z,11.13
2022-08-27T22:34:59.131Z,13.02
2022-08-27T22:37:27.635Z,10.20
2022-08-27T22:39:56.950Z,9.50
2022-08-27T22:42:26.330Z,10.55
2022-08-27T22:44:55.088Z,9.07
2022-08-27T22:47:24.833Z,9.60
2022-08-27T22:49:53.173Z,11.32
2022-08-27T22:52:28.096Z,12.35
2022-08-27T22:54:56.793Z,9.07
2022-08-27T22:57:25.186Z,8.32
2022-08-27T22:59:53.545Z,9.73
2022-08-27T23:02:21.932Z,9.50
2022-08-27T23:04:55.767Z,9.52
2022-08-27T23:07:24.402Z,10.88
2022-08-27T23:09:52.856Z,10.23
2022-08-27T23:12:22.042Z,10.18
2022-08-27T23:14:50.657Z,9.85
2022-08-27T23:17:19.074Z,8.50
2022-08-27T23:19:47.998Z,11.30
2022-08-27T23:22:17.750Z,10.38
2022-08-27T23:25:04.753Z,10.48
2022-08-27T23:27:33.215Z,8.93
2022-08-27T23:30:02.806Z,10.15
2022-08-27T23:32:31.296Z,9.57
2022-08-27T23:34:59.669Z,11.20
2022-08-27T23:37:29.452Z,10.57
2022-08-27T23:39:57.881Z,10.43
2022-08-27T23:42:27.414Z,10.80
2022-08-27T23:44:55.797Z,9.65
2022-08-27T23:47:24.165Z,9.70
2022-08-27T23:49:52.630Z,9.15
2022-08-27T23:52:20.995Z,9.43
2022-08-27T23:54:50.706Z,7.43
2022-08-27T23:57:19.050Z,9.70
2022-08-27T23:59:47.414Z,7.47
